Time;durP1;ratioP1;P1;durP2;ratioP2;P2;SDS_P1;SDS_P2;PMS_P1;PMS_P2;Temp;Humidity;BMP_temperature;BMP_pressure;BME280_temperature;BME280_humidity;BME280_pressure;Samples;Min_cycle;Max_cycle;Signal;HPM_P1;HPM_P2
2021/12/16 00:29:19;;;;;;;2.33;1.40;;;;;;;13.95;43.20;101017.22;4934870;29;20075;-66
2021/12/16 00:34:20;;;;;;;1.73;1.50;;;;;;;13.86;43.51;101027.38;4934697;29;20480;-59
2021/12/16 00:36:49;;;;;;;3.85;1.00;;;;;;;13.82;43.85;101039.50;4933189;29;20138;-59
2021/12/16 00:39:23;;;;;;;3.27;1.07;;;;;;;13.75;44.02;101040.66;4934677;29;20052;-61
2021/12/16 00:41:56;;;;;;;1.90;1.43;;;;;;;13.66;44.18;101041.53;4932331;29;20063;-59
2021/12/16 00:49:45;;;;;;;3.50;1.77;;;;;;;13.49;44.79;101036.28;4925793;29;20512;-62
2021/12/16 00:55:35;;;;;;;4.00;2.10;;;;;;;13.49;44.90;101025.06;4934782;29;20118;-62
2021/12/16 00:57:57;;;;;;;2.00;0.63;;;;;;;13.54;44.71;101032.63;4935576;29;20457;-65
2021/12/16 01:00:28;;;;;;;3.87;1.33;;;;;;;13.63;44.48;101019.66;4933943;29;20086;-66
2021/12/16 01:59:41;;;;;;;7.00;1.90;;;;;;;13.28;44.84;100997.13;4925500;29;20054;-65
2021/12/16 02:02:46;;;;;;;1.63;1.17;;;;;;;13.15;45.11;100982.84;4927407;29;20138;-62
2021/12/16 02:10:38;;;;;;;2.13;1.40;;;;;;;13.14;45.29;100996.03;4933075;29;20158;-61
2021/12/16 02:32:15;;;;;;;3.50;2.10;;;;;;;13.43;43.44;101015.00;4933164;29;20407;-63
2021/12/16 02:37:33;;;;;;;2.17;1.17;;;;;;;13.52;43.00;101008.50;4930156;29;20082;-67
2021/12/16 02:40:02;;;;;;;2.87;1.27;;;;;;;13.36;42.53;100964.81;4932767;29;20158;-70
2021/12/16 02:42:54;;;;;;;2.42;1.50;;;;;;;13.64;42.15;100988.53;4933604;29;20083;-65
2021/12/16 02:50:31;;;;;;;1.87;0.83;;;;;;;13.78;41.08;101011.16;4928985;29;20127;-63
2021/12/16 02:52:58;;;;;;;1.43;1.17;;;;;;;13.77;40.92;101008.63;4930291;29;20523;-65
2021/12/16 02:55:25;;;;;;;0.93;0.87;;;;;;;13.75;41.18;101018.19;4930974;29;20559;-72
2021/12/16 02:57:59;;;;;;;1.27;0.97;;;;;;;13.62;41.33;100998.34;4935848;29;20146;-72
2021/12/16 03:00:36;;;;;;;2.70;1.70;;;;;;;13.72;41.17;101015.13;4932713;29;20066;-68
2021/12/16 03:03:03;;;;;;;2.10;1.50;;;;;;;13.70;41.49;101032.25;4930636;29;20047;-63
2021/12/16 03:05:31;;;;;;;3.43;1.03;;;;;;;13.77;41.06;101019.84;4925238;29;20052;-64
2021/12/16 03:07:58;;;;;;;1.63;1.10;;;;;;;13.90;40.54;101014.44;4929347;29;20063;-64
2021/12/16 03:13:09;;;;;;;1.90;1.50;;;;;;;14.12;40.03;101021.56;4931154;29;20482;-62
2021/12/16 03:18:40;;;;;;;1.60;0.90;;;;;;;14.03;40.10;101012.09;4929932;29;20527;-70
2021/12/16 03:21:24;;;;;;;1.23;0.73;;;;;;;14.16;39.90;101012.28;4933785;29;20467;-70
2021/12/16 03:24:44;;;;;;;1.00;0.80;;;;;;;14.17;40.06;101018.72;4929385;29;20081;-70
2021/12/16 03:27:24;;;;;;;1.80;0.67;;;;;;;14.17;39.80;101018.72;4929888;29;20126;-62
2021/12/16 03:35:53;;;;;;;1.70;1.13;;;;;;;14.12;39.67;101011.19;4929066;29;20736;-63
2021/12/16 03:38:10;;;;;;;3.30;1.27;;;;;;;14.07;39.59;100994.38;4924788;29;20143;-63
2021/12/16 03:40:40;;;;;;;1.60;1.20;;;;;;;14.25;39.29;101008.81;4929765;29;20555;-63
2021/12/16 03:43:09;;;;;;;;;;;;;;;14.20;39.54;101015.34;4923342;29;20060;-63
2021/12/16 03:48:46;;;;;;;1.77;1.30;;;;;;;14.31;39.37;101008.47;4932402;29;20083;-65
2021/12/16 03:51:21;;;;;;;2.80;1.27;;;;;;;14.28;39.23;101003.44;4932743;29;20048;-65
2021/12/16 03:53:51;;;;;;;3.97;1.73;;;;;;;14.22;39.33;101004.63;4932068;29;20078;-64
2021/12/16 03:56:20;;;;;;;2.65;1.40;;;;;;;14.14;39.54;100999.66;4930432;29;20057;-69
2021/12/16 03:58:47;;;;;;;2.87;1.50;;;;;;;14.08;39.72;101020.47;4930094;29;20071;-63
2021/12/16 04:01:20;;;;;;;2.50;1.60;;;;;;;14.00;39.84;101016.31;4934373;29;20047;-63
2021/12/16 04:03:46;;;;;;;0.93;0.70;;;;;;;14.00;39.76;101010.72;4924331;29;20479;-63
2021/12/16 04:06:13;;;;;;;5.60;2.50;;;;;;;14.06;39.61;101014.34;4927984;28;20075;-66
2021/12/16 04:08:41;;;;;;;3.73;2.00;;;;;;;14.03;39.47;100995.25;4931110;29;20090;-66
2021/12/16 04:11:17;;;;;;;1.20;0.90;;;;;;;14.07;39.33;101016.00;4931340;29;20134;-64
2021/12/16 04:13:57;;;;;;;0.93;0.70;;;;;;;14.10;39.29;101007.00;4930189;29;20158;-68
2021/12/16 04:16:31;;;;;;;0.88;0.70;;;;;;;14.10;39.04;101016.25;4931876;29;20107;-66
2021/12/16 04:19:21;;;;;;;4.43;0.87;;;;;;;14.22;38.93;101018.66;4930735;29;20126;-68
2021/12/16 04:21:52;;;;;;;3.33;1.83;;;;;;;14.32;38.78;101015.78;4927795;29;20103;-63
2021/12/16 04:24:20;;;;;;;5.10;1.70;;;;;;;14.26;38.72;100988.88;4922205;29;20119;-61
2021/12/16 04:26:50;;;;;;;1.43;1.07;;;;;;;14.39;38.68;101012.63;4928682;29;20126;-64
2021/12/16 04:29:18;;;;;;;1.30;0.97;;;;;;;14.21;39.04;101019.81;4931964;29;20130;-66
2021/12/16 04:31:45;;;;;;;1.17;1.03;;;;;;;13.99;39.21;101006.22;4931756;29;20126;-66
2021/12/16 04:34:12;;;;;;;2.03;0.87;;;;;;;13.91;39.28;100998.41;4917013;29;20155;-63
2021/12/16 04:36:39;;;;;;;0.97;0.60;;;;;;;13.90;39.53;101011.63;4930516;29;20067;-63
2021/12/16 04:39:11;;;;;;;1.60;0.97;;;;;;;13.93;39.13;101013.84;4937727;29;20047;-63
2021/12/16 04:41:40;;;;;;;1.50;1.07;;;;;;;13.87;39.10;101003.78;4931075;29;20563;-62
2021/12/16 04:44:09;;;;;;;0.60;0.50;;;;;;;14.04;38.84;101014.59;4935619;29;20128;-63
2021/12/16 04:46:36;;;;;;;0.73;0.73;;;;;;;14.12;38.33;101015.94;4927030;29;20043;-64
2021/12/16 04:49:06;;;;;;;1.30;1.07;;;;;;;14.23;37.95;101020.38;4934476;29;20130;-66
2021/12/16 04:51:36;;;;;;;1.75;0.80;;;;;;;14.35;37.57;101003.94;4935812;29;20126;-65
2021/12/16 04:54:03;;;;;;;;;;;;;;;14.28;37.25;101025.94;4935236;29;20630;-65
2021/12/16 04:56:31;;;;;;;2.60;1.70;;;;;;;14.40;36.94;101012.34;4935726;29;19969;-66
2021/12/16 04:59:08;;;;;;;1.67;1.30;;;;;;;14.63;36.70;101026.75;4935344;29;20062;-66
2021/12/16 05:01:36;;;;;;;2.43;1.57;;;;;;;14.68;36.71;101036.00;4933543;29;20058;-63
2021/12/16 05:04:04;;;;;;;0.87;0.67;;;;;;;14.72;36.70;101012.91;4934653;29;20194;-62
2021/12/16 05:06:32;;;;;;;1.73;1.20;;;;;;;14.62;36.76;101014.69;4934188;29;20059;-62
2021/12/16 05:08:59;;;;;;;1.20;1.10;;;;;;;14.45;37.25;100992.59;4933120;29;20512;-62
2021/12/16 05:11:27;;;;;;;4.00;1.40;;;;;;;14.41;37.25;101025.25;4934477;29;20192;-63
2021/12/16 05:13:56;;;;;;;1.40;1.30;;;;;;;14.50;37.35;101021.81;4935263;29;20138;-63
2021/12/16 05:16:23;;;;;;;1.27;0.98;;;;;;;14.41;37.56;101030.88;4932780;29;20190;-64
2021/12/16 05:18:53;;;;;;;2.03;1.13;;;;;;;14.21;38.04;101019.81;4933816;29;20122;-64
2021/12/16 05:21:45;;;;;;;0.70;0.63;;;;;;;14.17;38.35;101027.16;4933999;29;20559;-64
2021/12/16 05:24:17;;;;;;;1.90;1.10;;;;;;;13.92;38.61;101020.59;4930984;29;20150;-64
2021/12/16 05:26:46;;;;;;;1.43;1.23;;;;;;;13.89;39.18;101015.56;4932758;29;20472;-63
2021/12/16 05:29:13;;;;;;;0.97;0.90;;;;;;;13.80;39.44;101022.91;4935909;29;20138;-65
2021/12/16 05:31:41;;;;;;;3.10;1.73;;;;;;;13.62;40.15;101013.22;4934294;29;20650;-73
2021/12/16 05:34:09;;;;;;;3.07;1.57;;;;;;;13.38;40.58;101013.06;4935912;29;20386;-70
2021/12/16 05:36:36;;;;;;;3.50;1.57;;;;;;;13.43;40.66;101026.22;4930970;29;20131;-71
2021/12/16 05:39:05;;;;;;;1.17;1.03;;;;;;;13.40;40.87;101033.28;4931547;29;20048;-64
2021/12/16 05:41:32;;;;;;;1.27;0.77;;;;;;;13.35;41.05;101038.88;4930313;29;20083;-70
2021/12/16 05:44:00;;;;;;;1.90;1.13;;;;;;;13.28;41.26;101042.00;4934699;29;20107;-70
2021/12/16 05:46:27;;;;;;;2.20;1.63;;;;;;;13.17;41.64;101034.72;4935914;29;20551;-73
2021/12/16 05:48:56;;;;;;;1.63;1.23;;;;;;;13.11;41.63;101035.03;4934175;29;20495;-74
2021/12/16 05:51:29;;;;;;;2.27;0.80;;;;;;;13.11;41.86;101046.25;4932124;29;20543;-75
2021/12/16 05:53:58;;;;;;;2.63;1.40;;;;;;;13.12;41.84;101045.94;4925306;29;20056;-80
2021/12/16 05:56:25;;;;;;;1.53;0.83;;;;;;;13.05;41.91;101056.63;4927770;29;20043;-71
2021/12/16 05:58:52;;;;;;;1.93;1.30;;;;;;;12.94;42.30;101041.81;4931787;29;20078;-69
2021/12/16 06:01:29;;;;;;;1.80;0.80;;;;;;;12.96;42.35;101055.56;4932571;29;20491;-71
2021/12/16 06:03:57;;;;;;;2.33;1.50;;;;;;;12.85;42.53;101032.28;4934499;29;20510;-61
2021/12/16 06:06:25;;;;;;;1.83;1.53;;;;;;;12.94;42.24;101043.78;4926273;29;20514;-68
2021/12/16 06:08:53;;;;;;;1.03;0.93;;;;;;;12.85;42.25;101029.47;4931284;29;20949;-64
2021/12/16 06:11:27;;;;;;;2.53;1.50;;;;;;;12.90;42.22;101042.66;4932973;29;20519;-62
2021/12/16 06:28:08;;;;;;;1.07;0.93;;;;;;;13.26;41.20;101057.44;4927257;29;20082;-70
2021/12/16 06:30:39;;;;;;;1.98;1.10;;;;;;;13.28;41.24;101052.38;4922026;29;20236;-66
2021/12/16 06:33:12;;;;;;;3.23;1.10;;;;;;;13.26;41.13;101049.88;4926623;29;20142;-66
2021/12/16 06:35:40;;;;;;;0.43;0.43;;;;;;;13.21;41.07;101046.22;4923515;29;20083;-65
2021/12/16 06:38:07;;;;;;;0.47;0.47;;;;;;;13.26;41.20;101052.69;4923758;29;20134;-74
2021/12/16 06:40:34;;;;;;;1.03;0.83;;;;;;;13.15;41.40;101036.97;4912986;29;20047;-65
2021/12/16 06:43:04;;;;;;;0.60;0.60;;;;;;;13.28;41.29;101058.00;4930324;29;20055;-72
2021/12/16 06:45:35;;;;;;;3.60;0.97;;;;;;;13.32;41.06;101059.09;4932469;29;20385;-67
2021/12/16 06:48:08;;;;;;;0.93;0.90;;;;;;;13.25;41.23;101047.34;4933393;29;20554;-60
2021/12/16 06:53:09;;;;;;;0.82;0.82;;;;;;;13.30;40.97;101055.75;4921970;29;20082;-61
2021/12/16 06:55:44;;;;;;;1.17;0.77;;;;;;;13.27;40.80;101047.91;4927284;29;20504;-59
2021/12/16 06:58:19;;;;;;;1.57;0.77;;;;;;;13.44;40.60;101059.63;4925281;29;20142;-57
2021/12/16 07:00:49;;;;;;;0.20;0.20;;;;;;;13.49;40.48;101059.56;4925030;29;20079;-61
2021/12/16 07:03:19;;;;;;;0.47;0.47;;;;;;;13.50;40.33;101066.88;4923506;29;20048;-60
2021/12/16 07:05:49;;;;;;;;;;;;;;;13.37;40.37;101056.28;4925730;29;20130;-58
2021/12/16 07:08:18;;;;;;;1.45;1.15;;;;;;;13.44;40.15;101045.59;4926852;29;20018;-60
2021/12/16 07:10:47;;;;;;;1.13;1.00;;;;;;;13.43;40.23;101045.84;4932854;29;20212;-63
2021/12/16 07:13:29;;;;;;;0.65;0.65;;;;;;;13.48;40.26;101060.72;4932524;29;20499;-62
2021/12/16 07:15:57;;;;;;;0.93;0.93;;;;;;;13.47;40.45;101055.41;4927396;29;20131;-61
2021/12/16 07:18:25;;;;;;;0.60;0.60;;;;;;;13.39;40.28;101064.41;4929165;29;20051;-61
2021/12/16 07:20:52;;;;;;;1.80;0.87;;;;;;;13.47;40.24;101070.25;4928159;29;20059;-63
2021/12/16 07:23:19;;;;;;;0.53;0.53;;;;;;;13.34;39.98;101040.03;4929785;29;20070;-61
2021/12/16 07:25:46;;;;;;;1.33;0.63;;;;;;;13.59;40.03;101069.91;4929212;29;20464;-61
2021/12/16 07:28:14;;;;;;;1.43;1.17;;;;;;;13.56;39.71;101064.88;4931572;29;20135;-61
2021/12/16 07:30:44;;;;;;;0.50;0.47;;;;;;;13.56;39.67;101064.03;4923424;29;20127;-61
2021/12/16 07:33:16;;;;;;;0.27;0.27;;;;;;;13.65;39.93;101067.94;4929621;29;20114;-61
2021/12/16 07:35:44;;;;;;;0.70;0.57;;;;;;;13.57;39.88;101071.31;4928489;29;20044;-62
2021/12/16 07:38:12;;;;;;;0.40;0.40;;;;;;;13.52;39.90;101066.59;4919297;29;20820;-62
2021/12/16 07:40:41;;;;;;;0.80;0.70;;;;;;;13.02;40.04;100995.50;4921125;29;20150;-62
2021/12/16 07:45:42;;;;;;;0.30;0.30;;;;;;;13.46;39.92;101065.75;4931503;29;20044;-62
2021/12/16 07:48:15;;;;;;;1.27;1.17;;;;;;;13.40;40.13;101064.13;4928753;29;20132;-63
2021/12/16 07:50:46;;;;;;;0.83;0.73;;;;;;;13.37;40.03;101050.66;4926322;29;20138;-61
2021/12/16 07:53:13;;;;;;;0.97;0.77;;;;;;;13.42;39.81;101067.47;4918367;29;20048;-61
2021/12/16 07:55:42;;;;;;;0.93;0.60;;;;;;;13.40;39.90;101061.31;4920412;29;20488;-62
2021/12/16 07:58:10;;;;;;;2.70;1.27;;;;;;;13.31;39.70;101031.34;4928799;29;20147;-61
2021/12/16 08:00:38;;;;;;;1.43;1.10;;;;;;;13.41;39.74;101046.16;4924864;29;20066;-61
2021/12/16 08:03:08;;;;;;;1.50;0.97;;;;;;;13.56;39.81;101064.03;4933478;29;20384;-62
2021/12/16 08:05:40;;;;;;;1.17;1.08;;;;;;;13.57;39.51;101054.50;4930336;29;20055;-62
2021/12/16 08:08:08;;;;;;;2.63;1.27;;;;;;;13.58;39.39;101062.63;4930161;29;20263;-62
2021/12/16 08:10:37;;;;;;;0.50;0.50;;;;;;;13.71;39.32;101066.78;4927067;29;20564;-62
2021/12/16 08:13:04;;;;;;;0.80;0.47;;;;;;;13.77;39.17;101076.00;4927952;29;20074;-62
2021/12/16 08:15:32;;;;;;;0.63;0.60;;;;;;;13.87;38.97;101073.97;4929839;29;20471;-61
2021/12/16 08:17:59;;;;;;;0.93;0.83;;;;;;;13.97;38.68;101079.50;4928497;29;20511;-62
2021/12/16 08:20:26;;;;;;;1.20;1.10;;;;;;;14.19;38.34;101083.88;4930446;29;20123;-61
2021/12/16 08:22:56;;;;;;;0.35;0.35;;;;;;;14.28;38.39;101082.13;4934570;29;20138;-60
2021/12/16 08:25:26;;;;;;;1.40;1.10;;;;;;;14.19;38.17;101050.19;4937122;29;20048;-61
2021/12/16 08:27:55;;;;;;;1.27;0.93;;;;;;;14.37;38.11;101079.53;4936364;29;20126;-61
2021/12/16 08:30:27;;;;;;;0.70;0.70;;;;;;;14.37;38.04;101071.94;4930921;29;20060;-61
2021/12/16 08:32:55;;;;;;;0.93;0.83;;;;;;;14.54;37.93;101079.13;4936600;29;20051;-61
2021/12/16 08:35:23;;;;;;;2.43;1.20;;;;;;;14.58;37.86;101074.59;4934369;29;20508;-62
2021/12/16 08:37:50;;;;;;;2.40;0.93;;;;;;;14.66;38.04;101085.19;4935979;29;20123;-61
2021/12/16 08:40:22;;;;;;;4.13;2.20;;;;;;;14.67;38.19;101078.47;4945510;29;20051;-62
2021/12/16 08:42:50;;;;;;;0.93;0.80;;;;;;;14.73;38.15;101082.88;4933354;29;20079;-61
2021/12/16 08:45:24;;;;;;;2.73;0.80;;;;;;;14.85;37.52;101090.94;4937059;29;20134;-62
2021/12/16 08:47:52;;;;;;;1.40;1.00;;;;;;;14.97;37.58;101082.09;4934101;29;20086;-62
2021/12/16 08:50:22;;;;;;;2.57;1.00;;;;;;;15.06;37.06;101075.53;4935561;29;20508;-62
2021/12/16 08:52:49;;;;;;;1.10;0.68;;;;;;;15.20;36.96;101081.28;4936564;29;20048;-62
2021/12/16 08:55:17;;;;;;;1.43;1.07;;;;;;;15.53;36.29;101101.16;4936320;29;20242;-62
2021/12/16 08:57:44;;;;;;;2.37;1.23;;;;;;;15.83;36.02;101085.88;4927201;29;20503;-62
2021/12/16 09:00:21;;;;;;;1.17;1.10;;;;;;;16.10;35.04;101076.72;4920801;29;20055;-62
2021/12/16 09:02:49;;;;;;;1.07;1.00;;;;;;;16.35;34.97;101073.50;4934259;29;20044;-62
2021/12/16 09:05:16;;;;;;;2.27;1.70;;;;;;;16.54;33.93;101072.63;4935988;29;20103;-62
2021/12/16 09:07:46;;;;;;;2.22;1.00;;;;;;;17.08;33.62;101090.88;4934512;29;20067;-61
2021/12/16 09:10:22;;;;;;;1.40;1.30;;;;;;;17.43;33.31;101080.84;4935724;29;20139;-62
2021/12/16 09:13:02;;;;;;;1.65;1.38;;;;;;;17.69;32.81;101085.97;4931315;29;20749;-61
2021/12/16 09:15:37;;;;;;;1.30;1.17;;;;;;;17.81;32.63;101088.28;4930045;29;20048;-61
2021/12/16 09:18:06;;;;;;;1.63;1.52;;;;;;;17.91;32.65;101083.22;4933899;29;20214;-62
2021/12/16 09:20:33;;;;;;;2.05;1.25;;;;;;;17.89;32.32;101082.72;4930219;29;20092;-62
2021/12/16 09:23:01;;;;;;;1.10;1.00;;;;;;;17.97;32.57;101089.63;4928365;29;20052;-62
2021/12/16 09:25:28;;;;;;;1.42;1.00;;;;;;;18.21;32.18;101095.81;4935712;29;20122;-61
2021/12/16 09:27:55;;;;;;;2.83;1.55;;;;;;;18.64;31.60;101086.84;4935642;29;20147;-61
2021/12/16 09:30:25;;;;;;;2.28;1.50;;;;;;;19.37;31.44;101086.63;4928059;29;20094;-62
2021/12/16 09:32:56;;;;;;;2.75;2.03;;;;;;;20.05;30.70;101087.16;4929790;29;20139;-62
2021/12/16 09:35:24;;;;;;;3.17;2.00;;;;;;;20.71;30.24;101087.00;4935733;29;20078;-61
2021/12/16 09:37:51;;;;;;;2.45;1.88;;;;;;;21.23;28.91;101107.59;4934129;29;20055;-61
2021/12/16 09:40:21;;;;;;;3.33;2.10;;;;;;;21.47;28.96;101095.69;4933618;29;20089;-62
2021/12/16 09:42:51;;;;;;;5.10;1.98;;;;;;;21.61;28.72;101097.44;4932233;29;20111;-62
2021/12/16 09:45:19;;;;;;;2.10;1.80;;;;;;;21.58;28.54;101104.66;4926910;29;20131;-62
2021/12/16 09:47:49;;;;;;;4.32;1.80;;;;;;;21.35;28.47;101112.59;4935498;29;20436;-61
2021/12/16 09:50:21;;;;;;;3.55;1.65;;;;;;;21.21;28.36;101104.25;4933502;29;20412;-61
2021/12/16 09:52:48;;;;;;;3.88;1.85;;;;;;;21.15;28.58;101110.47;4931775;29;20411;-61
2021/12/16 09:55:15;;;;;;;2.30;2.00;;;;;;;21.03;28.79;101112.00;4934447;29;20052;-62
2021/12/16 09:57:43;;;;;;;3.53;2.05;;;;;;;20.79;28.84;101098.34;4926242;29;20097;-62
2021/12/16 10:00:12;;;;;;;3.30;2.20;;;;;;;21.42;29.11;101103.53;4930673;29;20076;-62
2021/12/16 10:02:40;;;;;;;4.70;2.38;;;;;;;21.25;28.83;101110.09;4936719;29;20465;-62
2021/12/16 10:05:09;;;;;;;3.95;2.40;;;;;;;21.04;28.81;101110.81;4935465;29;20404;-62
2021/12/16 10:07:36;;;;;;;2.35;1.60;;;;;;;20.52;29.35;101119.41;4934509;29;20135;-62
2021/12/16 10:10:10;;;;;;;3.67;1.98;;;;;;;20.23;29.36;101116.38;4926522;29;20466;-62
2021/12/16 10:12:41;;;;;;;3.22;1.60;;;;;;;19.77;29.50;101129.13;4926700;29;20481;-61
2021/12/16 10:18:07;;;;;;;7.35;1.88;;;;;;;19.23;29.88;101106.53;4931620;29;20405;-61
2021/12/16 10:20:43;;;;;;;4.50;2.30;;;;;;;19.20;30.11;101112.84;4934692;29;20135;-62
2021/12/16 10:23:19;;;;;;;3.40;1.85;;;;;;;19.29;30.11;101130.72;4934270;29;20058;-61
2021/12/16 10:25:56;;;;;;;4.00;2.28;;;;;;;19.28;29.79;101122.53;4928306;29;20052;-61
2021/12/16 10:28:26;;;;;;;4.63;2.58;;;;;;;19.68;30.09;101119.75;4920437;29;20047;-61
2021/12/16 10:31:03;;;;;;;;;;;;;;;19.65;30.03;101109.91;4933495;29;20175;-61
2021/12/16 10:33:38;;;;;;;2.40;1.42;;;;;;;19.91;29.54;101109.97;4934135;29;20018;-61
2021/12/16 10:36:22;;;;;;;3.08;2.22;;;;;;;20.09;29.18;101114.50;4928551;29;20056;-62
2021/12/16 10:38:49;;;;;;;6.88;2.83;;;;;;;20.34;29.25;101120.53;4927275;29;20075;-61
2021/12/16 10:41:21;;;;;;;1.83;1.60;;;;;;;20.40;28.61;101105.03;4919984;29;20071;-62
2021/12/16 10:44:02;;;;;;;2.22;1.80;;;;;;;20.34;28.57;101090.19;4934492;29;20134;-61
2021/12/16 10:46:33;;;;;;;1.58;1.48;;;;;;;20.46;28.37;101102.88;4930630;29;20062;-61
2021/12/16 10:49:06;;;;;;;2.45;2.08;;;;;;;20.34;28.53;101103.50;4927250;29;20134;-61
2021/12/16 10:51:37;;;;;;;2.05;1.95;;;;;;;19.98;28.69;101103.81;4931463;29;20127;-61
2021/12/16 10:54:15;;;;;;;5.78;2.90;;;;;;;20.26;28.57;101101.53;4936225;29;20054;-62
2021/12/16 10:57:04;;;;;;;4.85;2.75;;;;;;;20.40;28.31;101065.31;4928529;29;20155;-61
2021/12/16 10:59:36;;;;;;;3.53;2.88;;;;;;;20.76;27.96;101086.84;4931709;29;20052;-61
2021/12/16 11:02:25;;;;;;;3.90;2.28;;;;;;;20.46;27.68;101089.50;4930428;29;20142;-61
2021/12/16 11:05:00;;;;;;;2.70;2.08;;;;;;;20.67;27.97;101089.69;4929269;29;20560;-61
2021/12/16 11:07:45;;;;;;;2.00;1.80;;;;;;;21.23;27.36;101099.09;4931495;29;20126;-61
2021/12/16 11:10:27;;;;;;;2.80;1.95;;;;;;;21.00;27.12;101061.56;4931623;29;20158;-61
2021/12/16 11:12:59;;;;;;;1.80;1.70;;;;;;;21.26;27.02;101084.19;4932219;29;20122;-62
2021/12/16 11:15:35;;;;;;;2.78;2.38;;;;;;;21.46;26.87;101088.31;4922661;29;20163;-61
2021/12/16 11:18:16;;;;;;;2.20;1.95;;;;;;;21.55;26.71;101081.75;4929067;29;20131;-61
2021/12/16 11:20:57;;;;;;;2.78;2.00;;;;;;;21.66;26.62;101100.91;4931514;29;20051;-61
2021/12/16 11:23:34;;;;;;;2.78;1.98;;;;;;;21.47;26.61;101084.31;4915865;29;20485;-62
2021/12/16 11:26:04;;;;;;;2.72;2.00;;;;;;;21.60;26.73;101075.88;4930853;29;20186;-61
2021/12/16 11:28:40;;;;;;;5.65;3.15;;;;;;;21.95;26.69;101073.66;4928883;29;20142;-61
2021/12/16 11:31:13;;;;;;;4.05;2.88;;;;;;;22.21;26.65;101079.16;4930739;29;20090;-61
2021/12/16 11:33:43;;;;;;;4.75;2.72;;;;;;;22.58;25.96;101056.59;4928401;29;20458;-61
2021/12/16 11:36:16;;;;;;;5.00;2.20;;;;;;;22.55;25.77;101060.13;4932154;29;20083;-62
2021/12/16 11:38:45;;;;;;;9.95;3.88;;;;;;;22.51;25.76;101042.94;4928185;29;20487;-62
2021/12/16 11:41:17;;;;;;;3.53;2.03;;;;;;;23.18;25.77;101063.69;4928835;29;20055;-62
2021/12/16 11:43:50;;;;;;;4.60;2.90;;;;;;;23.50;25.52;101072.47;4927499;29;20076;-61
2021/12/16 11:46:42;;;;;;;4.90;3.20;;;;;;;24.54;24.95;101059.50;4930175;29;20134;-59
2021/12/16 11:49:33;;;;;;;5.72;3.30;;;;;;;25.24;24.46;101059.00;4924737;29;20070;-63
2021/12/16 11:52:10;;;;;;;5.00;3.47;;;;;;;25.08;23.99;101061.00;4934162;29;20130;-61
2021/12/16 11:54:37;;;;;;;3.72;2.72;;;;;;;25.36;23.73;101080.94;4935727;29;20480;-61
2021/12/16 11:57:11;;;;;;;4.07;3.30;;;;;;;25.16;23.38;101069.44;4931156;29;20460;-61
2021/12/16 11:59:58;;;;;;;12.07;8.15;;;;;;;25.99;23.86;101053.13;4945273;29;20075;-61
2021/12/16 12:02:36;;;;;;;4.22;3.53;;;;;;;27.14;23.32;101050.63;4936777;29;20043;-62
2021/12/16 12:05:28;;;;;;;4.38;3.58;;;;;;;27.92;22.84;101047.44;4923708;29;20165;-63
2021/12/16 12:07:56;;;;;;;5.00;3.35;;;;;;;28.16;22.72;101059.66;4934229;29;20131;-61
2021/12/16 12:10:35;;;;;;;5.80;3.13;;;;;;;28.06;22.66;101053.38;4934805;29;20130;-61
2021/12/16 12:13:06;;;;;;;5.05;3.17;;;;;;;27.55;21.76;101042.31;4935378;29;20512;-61
2021/12/16 12:15:59;;;;;;;4.57;3.10;;;;;;;27.16;21.93;101051.09;4931225;29;20052;-62
2021/12/16 12:18:54;;;;;;;6.57;2.90;;;;;;;26.35;21.63;101061.69;4931390;29;20048;-62
2021/12/16 12:21:33;;;;;;;4.65;2.90;;;;;;;25.20;22.28;101047.50;4930091;29;20134;-62
2021/12/16 12:24:19;;;;;;;5.37;3.03;;;;;;;24.63;22.70;101043.03;4935421;29;20467;-62
2021/12/16 12:26:55;;;;;;;5.60;3.75;;;;;;;24.61;22.63;101036.84;4924713;29;20058;-60
2021/12/16 12:29:32;;;;;;;6.18;3.78;;;;;;;25.17;22.40;101048.22;4934320;29;20051;-60
2021/12/16 12:32:18;;;;;;;5.22;3.08;;;;;;;24.88;22.65;101046.59;4930200;29;20493;-61
2021/12/16 12:34:54;;;;;;;5.95;2.83;;;;;;;24.62;22.76;101054.84;4926618;29;20150;-60
2021/12/16 12:37:24;;;;;;;5.75;3.85;;;;;;;24.53;22.92;101035.00;4921413;29;20155;-61
2021/12/16 12:39:58;;;;;;;5.00;3.28;;;;;;;24.72;22.83;101037.19;4921097;29;20083;-61
2021/12/16 12:42:26;;;;;;;8.32;7.63;;;;;;;24.93;22.63;101032.03;4931903;29;20134;-61
2021/12/16 12:44:53;;;;;;;4.57;3.35;;;;;;;25.39;22.47;101023.88;4928415;29;20142;-61
2021/12/16 12:47:26;;;;;;;6.22;4.47;;;;;;;25.20;22.00;101023.81;4934044;29;20063;-60
2021/12/16 12:50:05;;;;;;;2.72;2.53;;;;;;;25.13;22.15;101033.00;4933875;29;20083;-61
2021/12/16 12:52:32;;;;;;;4.20;3.80;;;;;;;24.89;22.70;101030.25;4935208;29;20173;-61
2021/12/16 12:55:07;;;;;;;4.28;3.88;;;;;;;25.04;22.75;101026.59;4928923;29;20142;-61
2021/12/16 12:57:38;;;;;;;7.03;4.13;;;;;;;24.99;22.26;101018.28;4926761;29;20460;-61
2021/12/16 13:00:24;;;;;;;6.85;3.97;;;;;;;24.80;22.97;101021.88;4927321;29;20147;-60
2021/12/16 13:03:11;;;;;;;7.78;4.65;;;;;;;24.66;23.01;101010.91;4931327;29;20138;-61
2021/12/16 13:05:38;;;;;;;6.85;4.82;;;;;;;25.05;22.82;101006.22;4925338;29;20202;-61
2021/12/16 13:08:09;;;;;;;10.35;4.60;;;;;;;25.42;22.36;101008.81;4925897;29;20197;-61
2021/12/16 13:10:40;;;;;;;6.57;4.38;;;;;;;26.22;22.39;101018.91;4924300;29;20056;-61
2021/12/16 13:27:22;;;;;;;4.68;1.77;;;;;;;22.32;23.48;100986.50;4931899;29;20047;-61
2021/12/16 13:30:41;;;;;;;0.52;0.52;;;;;;;20.85;25.16;100987.47;4927615;29;20086;-61
2021/12/16 13:33:21;;;;;;;1.38;1.27;;;;;;;19.93;26.21;100974.44;4926988;29;20572;-61
2021/12/16 13:36:02;;;;;;;4.88;2.28;;;;;;;19.56;26.97;100971.03;4933916;29;20171;-61
2021/12/16 13:38:44;;;;;;;3.65;1.52;;;;;;;19.48;27.20;100965.34;4932254;29;20122;-61
2021/12/16 13:41:15;;;;;;;4.43;2.00;;;;;;;19.38;27.63;100958.00;4935018;29;20135;-61
2021/12/16 13:44:08;;;;;;;2.05;1.33;;;;;;;19.32;27.62;100959.34;4932953;29;20130;-61
2021/12/16 13:47:05;;;;;;;4.22;2.00;;;;;;;19.36;27.73;100954.69;4928982;29;20054;-61
2021/12/16 13:59:15;;;;;;;1.05;0.77;;;;;;;18.85;28.35;100956.19;4922617;29;20772;-62
2021/12/16 14:07:12;;;;;;;3.15;1.63;;;;;;;18.68;28.48;100952.09;4934168;29;20564;-62
2021/12/16 14:10:04;;;;;;;2.45;2.00;;;;;;;18.92;28.23;100945.22;4930441;29;20130;-62
2021/12/16 14:23:32;;;;;;;3.47;1.98;;;;;;;18.83;28.48;100935.88;4934333;29;20126;-62
2021/12/16 14:26:37;;;;;;;2.85;1.73;;;;;;;18.73;28.61;100937.00;4928786;29;20139;-61
2021/12/16 14:42:38;;;;;;;4.50;1.42;;;;;;;19.01;28.71;100931.94;4932466;29;20078;-61
2021/12/16 14:47:58;;;;;;;3.30;1.70;;;;;;;19.10;28.39;100920.63;4930128;29;20106;-61
2021/12/16 14:50:34;;;;;;;3.30;1.20;;;;;;;19.10;28.50;100918.63;4925106;29;20052;-61
2021/12/16 14:53:22;;;;;;;4.60;1.98;;;;;;;19.12;28.42;100916.31;4926770;29;20134;-60
2021/12/16 14:55:52;;;;;;;2.80;1.13;;;;;;;19.21;28.22;100918.31;4926419;29;20051;-61
2021/12/16 14:58:21;;;;;;;2.70;1.70;;;;;;;19.18;28.22;100915.00;4927680;29;20544;-61
2021/12/16 15:00:56;;;;;;;2.38;1.42;;;;;;;19.04;28.48;100917.16;4928107;29;20134;-61
2021/12/16 15:03:33;;;;;;;5.53;1.48;;;;;;;19.07;28.57;100907.97;4930680;29;20056;-62
2021/12/16 15:06:04;;;;;;;2.53;1.65;;;;;;;19.16;28.44;100911.66;4926614;29;20044;-62
2021/12/16 15:08:54;;;;;;;2.45;1.23;;;;;;;18.93;28.15;100885.47;4930007;29;20079;-62
2021/12/16 15:39:51;;;;;;;29.67;8.80;;;;;;;18.47;33.33;100923.53;4918963;29;20070;-61
2021/12/16 15:45:28;;;;;;;17.33;7.90;;;;;;;18.31;34.39;100932.75;4923867;29;20114;-61
2021/12/16 15:47:58;;;;;;;;;;;;;;;18.25;33.12;100926.41;4929185;29;20051;-61
2021/12/16 15:50:30;;;;;;;12.05;5.93;;;;;;;18.17;34.71;100927.19;4917207;29;19934;-61
2021/12/16 15:53:00;;;;;;;15.03;6.03;;;;;;;18.05;35.42;100927.78;4924214;29;20051;-62
2021/12/16 15:55:47;;;;;;;17.27;5.95;;;;;;;17.87;35.91;100932.47;4930801;29;20603;-61
2021/12/16 15:58:19;;;;;;;13.53;6.20;;;;;;;17.62;36.70;100908.47;4920478;29;20130;-61
2021/12/16 16:00:51;;;;;;;13.60;5.63;;;;;;;17.53;37.33;100918.84;4917914;29;20048;-61
2021/12/16 16:03:20;;;;;;;11.10;5.27;;;;;;;17.52;37.75;100936.94;4925008;29;20044;-62
2021/12/16 16:05:53;;;;;;;16.58;6.25;;;;;;;17.43;37.58;100938.84;4925790;29;20059;-62